createdAt,value
2022-12-28T00:00:56.815Z,1016.38
2022-12-28T00:01:56.894Z,1016.37
2022-12-28T00:02:56.835Z,1016.38
2022-12-28T00:03:56.831Z,1016.40
2022-12-28T00:04:56.773Z,1016.35
2022-12-28T00:05:56.799Z,1016.38
2022-12-28T00:06:56.750Z,1016.39
2022-12-28T00:07:56.731Z,1016.35
2022-12-28T00:08:56.798Z,1016.37
2022-12-28T00:09:56.735Z,1016.34
2022-12-28T00:11:07.936Z,1016.39
2022-12-28T00:11:56.745Z,1016.33
2022-12-28T00:12:56.689Z,1016.36
2022-12-28T00:13:56.692Z,1016.34
2022-12-28T00:14:56.675Z,1016.34
2022-12-28T00:15:56.721Z,1016.34
2022-12-28T00:16:56.655Z,1016.35
2022-12-28T00:17:56.629Z,1016.34
2022-12-28T00:18:56.655Z,1016.36
2022-12-28T00:19:56.631Z,1016.32
2022-12-28T00:20:56.608Z,1016.30
2022-12-28T00:21:56.595Z,1016.30
2022-12-28T00:22:56.583Z,1016.29
2022-12-28T00:23:57.318Z,1016.31
2022-12-28T00:24:56.563Z,1016.26
2022-12-28T00:25:56.550Z,1016.23
2022-12-28T00:26:56.564Z,1016.20
2022-12-28T00:27:56.519Z,1016.19
2022-12-28T00:29:03.665Z,1016.17
2022-12-28T00:29:56.529Z,1016.17
2022-12-28T00:30:56.500Z,1016.16
2022-12-28T00:31:56.519Z,1016.11
2022-12-28T00:32:56.477Z,1016.10
2022-12-28T00:33:56.483Z,1016.08
2022-12-28T00:34:56.471Z,1016.07
2022-12-28T00:35:56.440Z,1016.03
2022-12-28T00:37:10.104Z,1016.06
2022-12-28T00:37:56.528Z,1016.05
2022-12-28T00:38:56.442Z,1016.03
2022-12-28T00:39:56.415Z,1016.01
2022-12-28T00:40:56.404Z,1016.00
2022-12-28T00:41:56.392Z,1016.02
2022-12-28T00:42:56.379Z,1016.04
2022-12-28T00:43:56.394Z,1016.06
2022-12-28T00:44:56.361Z,1016.10
2022-12-28T00:45:56.385Z,1016.11
2022-12-28T00:46:56.337Z,1016.13
2022-12-28T00:47:56.332Z,1016.15
2022-12-28T00:48:56.332Z,1016.18
2022-12-28T00:49:56.300Z,1016.19
2022-12-28T00:50:56.308Z,1016.19
2022-12-28T00:51:56.272Z,1016.15
2022-12-28T00:52:56.281Z,1016.12
2022-12-28T00:53:56.318Z,1016.05
2022-12-28T00:54:56.269Z,1016.00
2022-12-28T00:55:56.243Z,1015.97
2022-12-28T00:56:56.243Z,1015.96
2022-12-28T00:57:56.213Z,1015.95
2022-12-28T00:58:56.215Z,1015.94
2022-12-28T00:59:56.191Z,1015.96
2022-12-28T01:00:56.276Z,1015.95
2022-12-28T01:01:56.331Z,1015.98
2022-12-28T01:02:56.208Z,1015.98
2022-12-28T01:03:56.196Z,1015.97
2022-12-28T01:04:56.167Z,1015.92
2022-12-28T01:05:56.148Z,1015.94
2022-12-28T01:06:56.115Z,1015.94
2022-12-28T01:07:56.137Z,1015.93
2022-12-28T01:08:56.101Z,1015.93
2022-12-28T01:09:56.119Z,1015.91
2022-12-28T01:10:56.083Z,1015.91
2022-12-28T01:11:56.108Z,1015.93
2022-12-28T01:12:56.063Z,1015.94
2022-12-28T01:13:56.074Z,1015.96
2022-12-28T01:14:56.057Z,1015.95
2022-12-28T01:15:56.022Z,1015.94
2022-12-28T01:16:56.058Z,1015.93
2022-12-28T01:17:56.019Z,1015.90
2022-12-28T01:18:56.036Z,1015.89
2022-12-28T01:19:55.996Z,1015.89
2022-12-28T01:20:55.996Z,1015.89
2022-12-28T01:21:55.975Z,1015.86
2022-12-28T01:22:55.941Z,1015.81
2022-12-28T01:23:55.970Z,1015.82
2022-12-28T01:24:56.045Z,1015.81
2022-12-28T01:25:55.932Z,1015.82
2022-12-28T01:26:55.930Z,1015.83
2022-12-28T01:27:55.906Z,1015.76
2022-12-28T01:28:55.902Z,1015.76
2022-12-28T01:29:55.928Z,1015.71
2022-12-28T01:30:55.877Z,1015.73
2022-12-28T01:31:55.949Z,1015.72
2022-12-28T01:32:55.860Z,1015.70
2022-12-28T01:33:55.859Z,1015.67
2022-12-28T01:34:55.848Z,1015.62
2022-12-28T01:35:55.844Z,1015.57
2022-12-28T01:36:55.812Z,1015.54
2022-12-28T01:37:55.815Z,1015.53
2022-12-28T01:38:55.810Z,1015.50
2022-12-28T01:39:55.830Z,1015.51
2022-12-28T01:40:55.776Z,1015.53
2022-12-28T01:41:55.762Z,1015.52
2022-12-28T01:42:55.763Z,1015.48
2022-12-28T01:43:55.746Z,1015.46
2022-12-28T01:44:55.733Z,1015.47
2022-12-28T01:45:55.752Z,1015.43
2022-12-28T01:46:55.707Z,1015.42
2022-12-28T01:47:55.709Z,1015.44
2022-12-28T01:48:55.801Z,1015.42
2022-12-28T01:49:55.688Z,1015.43
2022-12-28T01:50:55.676Z,1015.39
2022-12-28T01:51:55.682Z,1015.36
2022-12-28T01:52:55.656Z,1015.33
2022-12-28T01:53:55.646Z,1015.31
2022-12-28T01:54:55.744Z,1015.36
2022-12-28T01:55:55.619Z,1015.32
2022-12-28T01:56:55.599Z,1015.32
2022-12-28T01:57:55.613Z,1015.26
2022-12-28T01:58:55.585Z,1015.24
2022-12-28T01:59:55.703Z,1015.18
2022-12-28T02:00:55.618Z,1015.14
2022-12-28T02:01:55.693Z,1015.12
2022-12-28T02:02:55.635Z,1015.09
2022-12-28T02:03:55.530Z,1015.06
2022-12-28T02:04:55.533Z,1015.04
2022-12-28T02:05:55.520Z,1014.99
2022-12-28T02:06:55.492Z,1014.97
2022-12-28T02:07:55.506Z,1014.96
2022-12-28T02:08:55.497Z,1014.96
2022-12-28T02:10:44.328Z,1014.96
2022-12-28T02:10:55.463Z,1014.97
2022-12-28T02:11:55.453Z,1014.94
2022-12-28T02:12:55.480Z,1014.91
2022-12-28T02:13:55.441Z,1014.87
2022-12-28T02:14:55.470Z,1014.87
2022-12-28T02:15:55.413Z,1014.85
2022-12-28T02:16:55.495Z,1014.85
2022-12-28T02:17:55.395Z,1014.85
2022-12-28T02:18:55.381Z,1014.81
2022-12-28T02:19:55.412Z,1014.78
2022-12-28T02:20:55.359Z,1014.77
2022-12-28T02:21:55.344Z,1014.74
2022-12-28T02:22:55.348Z,1014.69
2022-12-28T02:23:55.326Z,1014.69
2022-12-28T02:25:12.623Z,1014.65
2022-12-28T02:25:55.310Z,1014.60
2022-12-28T02:26:55.290Z,1014.63
2022-12-28T02:27:55.302Z,1014.59
2022-12-28T02:28:55.290Z,1014.56
2022-12-28T02:29:55.272Z,1014.52
2022-12-28T02:30:55.256Z,1014.54
2022-12-28T02:31:55.240Z,1014.52
2022-12-28T02:32:55.236Z,1014.50
2022-12-28T02:33:55.213Z,1014.50
2022-12-28T02:34:55.231Z,1014.50
2022-12-28T02:35:55.195Z,1014.47
2022-12-28T02:36:55.183Z,1014.48
2022-12-28T02:37:55.184Z,1014.42
2022-12-28T02:38:55.169Z,1014.40
2022-12-28T02:39:55.187Z,1014.37
2022-12-28T02:40:55.139Z,1014.35
2022-12-28T02:41:55.148Z,1014.31
2022-12-28T02:42:55.121Z,1014.30
2022-12-28T02:43:55.125Z,1014.27
2022-12-28T02:44:55.131Z,1014.28
2022-12-28T02:45:55.173Z,1014.25
2022-12-28T02:46:55.074Z,1014.24
2022-12-28T02:47:55.069Z,1014.21
2022-12-28T02:48:55.055Z,1014.23
2022-12-28T02:49:55.063Z,1014.18
2022-12-28T02:50:55.041Z,1014.16
2022-12-28T02:51:55.039Z,1014.10
2022-12-28T02:52:55.018Z,1014.07
2022-12-28T02:53:55.000Z,1014.02
2022-12-28T02:54:55.020Z,1014.07
2022-12-28T02:55:55.033Z,1013.98
2022-12-28T02:56:54.974Z,1014.02
2022-12-28T02:57:54.988Z,1014.02
2022-12-28T02:58:54.959Z,1013.98
2022-12-28T02:59:54.957Z,1013.99
2022-12-28T03:00:55.112Z,1013.94
2022-12-28T03:01:55.058Z,1013.91
2022-12-28T03:02:54.996Z,1013.86
2022-12-28T03:03:54.903Z,1013.84
2022-12-28T03:04:54.920Z,1013.80
2022-12-28T03:05:54.901Z,1013.80
2022-12-28T03:06:54.867Z,1013.75
2022-12-28T03:07:54.870Z,1013.71
2022-12-28T03:08:54.859Z,1013.66
2022-12-28T03:09:54.866Z,1013.65
2022-12-28T03:10:54.821Z,1013.65
2022-12-28T03:11:54.833Z,1013.63
2022-12-28T03:12:54.814Z,1013.63
2022-12-28T03:13:54.795Z,1013.58
2022-12-28T03:14:54.847Z,1013.55
2022-12-28T03:15:54.797Z,1013.54
2022-12-28T03:16:54.777Z,1013.49
2022-12-28T03:17:54.758Z,1013.47
2022-12-28T03:18:54.751Z,1013.48
2022-12-28T03:19:54.770Z,1013.47
2022-12-28T03:20:54.727Z,1013.45
2022-12-28T03:21:54.727Z,1013.46
2022-12-28T03:22:54.698Z,1013.41
2022-12-28T03:23:54.709Z,1013.42
2022-12-28T03:24:54.728Z,1013.41
2022-12-28T03:25:54.685Z,1013.36
2022-12-28T03:26:54.676Z,1013.38
2022-12-28T03:27:54.667Z,1013.36
2022-12-28T03:28:54.647Z,1013.33
2022-12-28T03:29:54.655Z,1013.30
2022-12-28T03:30:54.648Z,1013.30
2022-12-28T03:31:54.632Z,1013.28
2022-12-28T03:32:54.608Z,1013.26
2022-12-28T03:33:54.600Z,1013.26
2022-12-28T03:34:54.626Z,1013.27
2022-12-28T03:35:54.602Z,1013.29
2022-12-28T03:36:54.565Z,1013.19
2022-12-28T03:37:54.561Z,1013.23
2022-12-28T03:38:54.535Z,1013.15
2022-12-28T03:39:54.547Z,1013.21
2022-12-28T03:40:54.559Z,1013.18
2022-12-28T03:41:54.504Z,1013.17
2022-12-28T03:42:54.515Z,1013.13
2022-12-28T03:43:54.529Z,1013.11
2022-12-28T03:44:54.497Z,1013.14
2022-12-28T03:45:54.527Z,1013.09
2022-12-28T03:46:54.463Z,1013.06
2022-12-28T03:47:54.462Z,1013.08
2022-12-28T03:48:54.437Z,1013.06
2022-12-28T03:49:54.462Z,1013.03
2022-12-28T03:50:54.408Z,1012.96
2022-12-28T03:51:54.416Z,1012.93
2022-12-28T03:52:54.416Z,1012.88
2022-12-28T03:53:54.387Z,1012.89
2022-12-28T03:54:54.382Z,1012.85
2022-12-28T03:55:54.369Z,1012.86
2022-12-28T03:56:54.362Z,1012.77
2022-12-28T03:57:54.348Z,1012.84
2022-12-28T03:58:54.339Z,1012.80
2022-12-28T03:59:54.337Z,1012.76
2022-12-28T04:00:54.322Z,1012.73
2022-12-28T04:01:54.430Z,1012.76
2022-12-28T04:02:54.423Z,1012.74
2022-12-28T04:03:54.291Z,1012.88
2022-12-28T04:04:54.282Z,1012.71
2022-12-28T04:05:54.266Z,1012.75
2022-12-28T04:06:54.250Z,1012.75
2022-12-28T04:07:54.261Z,1012.72
2022-12-28T04:08:54.235Z,1012.76
2022-12-28T04:09:54.245Z,1012.73
2022-12-28T04:10:54.194Z,1012.65
2022-12-28T04:11:54.222Z,1012.64
2022-12-28T04:12:54.188Z,1012.65
2022-12-28T04:13:54.179Z,1012.59
2022-12-28T04:14:54.200Z,1012.56
2022-12-28T04:15:54.212Z,1012.59
2022-12-28T04:16:54.146Z,1012.58
2022-12-28T04:17:54.151Z,1012.56
2022-12-28T04:18:54.119Z,1012.54
2022-12-28T04:19:54.132Z,1012.53
2022-12-28T04:20:54.126Z,1012.50
2022-12-28T04:21:54.106Z,1012.50
2022-12-28T04:22:54.088Z,1012.47
2022-12-28T04:23:54.083Z,1012.43
2022-12-28T04:24:54.084Z,1012.36
2022-12-28T04:25:54.066Z,1012.34
2022-12-28T04:26:54.046Z,1012.34
2022-12-28T04:27:54.029Z,1012.33
2022-12-28T04:28:54.022Z,1012.27
2022-12-28T04:29:54.054Z,1012.25
2022-12-28T04:30:54.051Z,1012.23
2022-12-28T04:31:53.995Z,1012.23
2022-12-28T04:32:53.994Z,1012.26
2022-12-28T04:33:53.973Z,1012.26
2022-12-28T04:34:53.970Z,1012.25
2022-12-28T04:35:53.963Z,1012.21
2022-12-28T04:36:53.934Z,1012.25
2022-12-28T04:37:53.929Z,1012.21
2022-12-28T04:38:53.931Z,1012.19
2022-12-28T04:39:55.373Z,1012.13
2022-12-28T04:40:53.901Z,1012.13
2022-12-28T04:41:53.904Z,1012.19
2022-12-28T04:42:53.886Z,1012.13
2022-12-28T04:43:53.871Z,1012.14
2022-12-28T04:44:53.887Z,1012.12
2022-12-28T04:45:53.970Z,1012.06
2022-12-28T04:46:53.879Z,1012.04
2022-12-28T04:47:53.869Z,1012.05
2022-12-28T04:48:53.819Z,1012.04
2022-12-28T04:49:53.827Z,1012.08
2022-12-28T04:50:53.832Z,1012.04
2022-12-28T04:51:53.788Z,1012.07
2022-12-28T04:52:53.786Z,1012.11
2022-12-28T04:53:53.773Z,1012.09
2022-12-28T04:54:53.763Z,1012.10
2022-12-28T04:55:53.783Z,1012.09
2022-12-28T04:56:53.734Z,1012.06
2022-12-28T04:57:53.722Z,1012.06
2022-12-28T04:58:53.722Z,1012.05
2022-12-28T04:59:53.721Z,1012.01
2022-12-28T05:00:53.749Z,1012.03
2022-12-28T05:01:53.831Z,1012.05
2022-12-28T05:02:53.758Z,1012.10
2022-12-28T05:03:56.487Z,1012.12
2022-12-28T05:04:53.665Z,1012.06
2022-12-28T05:05:53.660Z,1012.05
2022-12-28T05:06:53.632Z,1011.99
2022-12-28T05:07:53.633Z,1011.99
2022-12-28T05:08:53.628Z,1011.99
2022-12-28T05:09:53.600Z,1011.97
2022-12-28T05:10:53.610Z,1011.92
2022-12-28T05:11:53.579Z,1011.94
2022-12-28T05:12:53.574Z,1012.00
2022-12-28T05:13:53.556Z,1011.96
2022-12-28T05:14:53.559Z,1011.94
2022-12-28T05:15:53.648Z,1012.01
2022-12-28T05:16:53.536Z,1012.00
2022-12-28T05:17:53.530Z,1011.98
2022-12-28T05:18:53.512Z,1011.94
2022-12-28T05:19:53.498Z,1011.97
2022-12-28T05:20:53.494Z,1011.96
2022-12-28T05:21:53.472Z,1011.95
2022-12-28T05:22:53.476Z,1011.91
2022-12-28T05:23:53.451Z,1011.87
2022-12-28T05:24:53.456Z,1011.90
2022-12-28T05:25:53.457Z,1011.92
2022-12-28T05:26:53.434Z,1011.86
2022-12-28T05:27:53.416Z,1011.87
2022-12-28T05:28:53.410Z,1011.87
2022-12-28T05:29:53.396Z,1011.82
2022-12-28T05:30:53.397Z,1011.88
2022-12-28T05:31:53.412Z,1011.82
2022-12-28T05:32:53.402Z,1011.77
2022-12-28T05:33:53.362Z,1011.82
2022-12-28T05:34:53.366Z,1011.76
2022-12-28T05:35:53.328Z,1011.74
2022-12-28T05:36:53.337Z,1011.68
2022-12-28T05:37:53.315Z,1011.75
2022-12-28T05:38:53.321Z,1011.76
2022-12-28T05:39:53.302Z,1011.74
2022-12-28T05:40:53.315Z,1011.71
2022-12-28T05:41:53.270Z,1011.74
2022-12-28T05:42:53.257Z,1011.77
2022-12-28T05:43:53.253Z,1011.70
2022-12-28T05:44:53.272Z,1011.71
2022-12-28T05:45:53.234Z,1011.68
2022-12-28T05:46:53.262Z,1011.65
2022-12-28T05:47:53.232Z,1011.59
2022-12-28T05:48:53.220Z,1011.60
2022-12-28T05:49:53.203Z,1011.57
2022-12-28T05:50:56.872Z,1011.56
2022-12-28T05:51:53.179Z,1011.49
2022-12-28T05:52:53.188Z,1011.44
2022-12-28T05:53:53.163Z,1011.46
2022-12-28T05:54:53.139Z,1011.43
2022-12-28T05:55:53.188Z,1011.40
2022-12-28T05:56:53.139Z,1011.40
2022-12-28T05:57:53.112Z,1011.39
2022-12-28T05:58:53.144Z,1011.38
2022-12-28T05:59:53.102Z,1011.35
2022-12-28T06:00:53.097Z,1011.28
2022-12-28T06:01:53.227Z,1011.30
2022-12-28T06:02:53.101Z,1011.23
2022-12-28T06:03:53.069Z,1011.27
2022-12-28T06:04:53.056Z,1011.28
2022-12-28T06:05:53.044Z,1011.24
2022-12-28T06:06:53.039Z,1011.23
2022-12-28T06:07:53.001Z,1011.27
2022-12-28T06:08:53.016Z,1011.21
2022-12-28T06:09:52.993Z,1011.23
2022-12-28T06:10:53.003Z,1011.24
2022-12-28T06:11:52.967Z,1011.23
2022-12-28T06:12:52.953Z,1011.21
2022-12-28T06:13:52.945Z,1011.19
2022-12-28T06:14:52.935Z,1011.21
2022-12-28T06:15:52.934Z,1011.20
2022-12-28T06:16:53.022Z,1011.20
2022-12-28T06:17:52.916Z,1011.15
2022-12-28T06:18:52.894Z,1011.17
2022-12-28T06:19:52.887Z,1011.18
2022-12-28T06:20:57.041Z,1011.12
2022-12-28T06:21:52.887Z,1011.20
2022-12-28T06:22:52.851Z,1011.20
2022-12-28T06:23:52.865Z,1011.15
2022-12-28T06:24:52.840Z,1011.14
2022-12-28T06:25:52.873Z,1011.12
2022-12-28T06:26:52.819Z,1011.10
2022-12-28T06:27:52.798Z,1011.03
2022-12-28T06:28:52.797Z,1011.11
2022-12-28T06:29:52.783Z,1011.02
2022-12-28T06:30:53.122Z,1011.00
2022-12-28T06:31:52.786Z,1010.96
2022-12-28T06:32:52.749Z,1010.99
2022-12-28T06:33:52.751Z,1010.96
2022-12-28T06:34:52.741Z,1010.94
2022-12-28T06:35:52.741Z,1010.93
2022-12-28T06:36:52.716Z,1010.90
2022-12-28T06:37:52.707Z,1010.93
2022-12-28T06:38:52.695Z,1010.90
2022-12-28T06:39:52.690Z,1010.82
2022-12-28T06:41:12.744Z,1010.81
2022-12-28T06:41:52.661Z,1010.81
2022-12-28T06:42:52.643Z,1010.84
2022-12-28T06:43:52.631Z,1010.84
2022-12-28T06:44:52.652Z,1010.85
2022-12-28T06:45:52.703Z,1010.80
2022-12-28T06:46:52.612Z,1010.78
2022-12-28T06:47:52.600Z,1010.71
2022-12-28T06:48:52.625Z,1010.76
2022-12-28T06:49:52.560Z,1010.75
2022-12-28T06:50:52.511Z,1010.78
2022-12-28T06:51:52.514Z,1010.84
2022-12-28T06:52:52.548Z,1010.79
2022-12-28T06:53:52.546Z,1010.79
2022-12-28T06:54:52.520Z,1010.74
2022-12-28T06:55:52.516Z,1010.74
2022-12-28T06:56:52.510Z,1010.75
2022-12-28T06:57:52.449Z,1010.74
2022-12-28T06:58:56.890Z,1010.65
2022-12-28T06:59:52.439Z,1010.68
2022-12-28T07:00:52.437Z,1010.66
2022-12-28T07:01:52.609Z,1010.63
2022-12-28T07:02:52.434Z,1010.64
2022-12-28T07:03:52.380Z,1010.60
2022-12-28T07:04:52.362Z,1010.56
2022-12-28T07:05:52.420Z,1010.57
2022-12-28T07:06:52.361Z,1010.53
2022-12-28T07:07:52.364Z,1010.48
2022-12-28T07:08:52.339Z,1010.55
2022-12-28T07:09:52.312Z,1010.52
2022-12-28T07:10:52.353Z,1010.63
2022-12-28T07:11:52.293Z,1010.52
2022-12-28T07:12:52.279Z,1010.47
2022-12-28T07:13:52.281Z,1010.47
2022-12-28T07:14:52.270Z,1010.41
2022-12-28T07:15:52.254Z,1010.42
2022-12-28T07:16:52.267Z,1010.36
2022-12-28T07:17:52.238Z,1010.42
2022-12-28T07:18:52.235Z,1010.35
2022-12-28T07:19:52.205Z,1010.32
2022-12-28T07:20:52.204Z,1010.32
2022-12-28T07:21:52.337Z,1010.29
2022-12-28T07:22:52.224Z,1010.35
2022-12-28T07:23:52.181Z,1010.27
2022-12-28T07:24:52.160Z,1010.26
2022-12-28T07:25:52.149Z,1010.23
2022-12-28T07:26:52.159Z,1010.30
2022-12-28T07:27:52.122Z,1010.24
2022-12-28T07:28:52.130Z,1010.26
2022-12-28T07:29:52.107Z,1010.24
2022-12-28T07:30:52.179Z,1010.21
2022-12-28T07:31:52.104Z,1010.21
2022-12-28T07:32:52.081Z,1010.24
2022-12-28T07:33:52.092Z,1010.25
2022-12-28T07:34:52.059Z,1010.15
2022-12-28T07:35:52.091Z,1010.17
2022-12-28T07:36:52.058Z,1010.16
2022-12-28T07:37:52.028Z,1010.13
2022-12-28T07:38:52.046Z,1010.15
2022-12-28T07:39:52.020Z,1010.17
2022-12-28T07:40:51.997Z,1010.16
2022-12-28T07:41:51.993Z,1010.13
2022-12-28T07:42:51.980Z,1010.11
2022-12-28T07:43:51.956Z,1010.08
2022-12-28T07:44:51.964Z,1010.06
2022-12-28T07:45:51.975Z,1010.08
2022-12-28T07:46:51.978Z,1010.01
2022-12-28T07:47:51.926Z,1010.03
2022-12-28T07:48:51.920Z,1009.98
2022-12-28T07:49:51.918Z,1009.97
2022-12-28T07:50:51.887Z,1009.96
2022-12-28T07:51:51.893Z,1009.92
2022-12-28T07:52:51.872Z,1009.96
2022-12-28T07:53:51.871Z,1009.95
2022-12-28T07:54:51.855Z,1009.92
2022-12-28T07:55:51.845Z,1009.90
2022-12-28T07:56:51.990Z,1009.93
2022-12-28T07:57:51.827Z,1009.94
2022-12-28T07:59:30.652Z,1009.94
2022-12-28T08:00:24.079Z,1009.91
2022-12-28T08:01:24.206Z,1009.85
2022-12-28T08:02:24.162Z,1009.88
2022-12-28T08:03:24.155Z,1009.84
2022-12-28T08:04:24.031Z,1009.82
2022-12-28T08:05:24.030Z,1009.88
2022-12-28T08:06:24.028Z,1009.84
2022-12-28T08:07:23.992Z,1009.81
2022-12-28T08:08:26.385Z,1009.85
2022-12-28T08:09:23.976Z,1009.79
2022-12-28T08:10:23.985Z,1009.79
2022-12-28T08:11:23.961Z,1009.81
2022-12-28T08:12:23.965Z,1009.81
2022-12-28T08:13:23.921Z,1009.74
2022-12-28T08:14:23.918Z,1009.70
2022-12-28T08:15:23.912Z,1009.78
2022-12-28T08:16:23.937Z,1009.81
2022-12-28T08:17:23.875Z,1009.79
2022-12-28T08:18:23.878Z,1009.82
2022-12-28T08:19:23.856Z,1009.79
2022-12-28T08:20:23.877Z,1009.80
2022-12-28T08:21:23.856Z,1009.80
2022-12-28T08:22:23.843Z,1009.75
2022-12-28T08:23:23.830Z,1009.70
2022-12-28T08:24:23.824Z,1009.68
2022-12-28T08:25:23.829Z,1009.71
2022-12-28T08:26:23.819Z,1009.65
2022-12-28T08:27:23.776Z,1009.69
2022-12-28T08:28:23.774Z,1009.66
2022-12-28T08:29:23.756Z,1009.65
2022-12-28T08:30:23.758Z,1009.63
2022-12-28T08:31:23.855Z,1009.59
2022-12-28T08:32:23.742Z,1009.55
2022-12-28T08:33:23.739Z,1009.57
2022-12-28T08:34:23.714Z,1009.57
2022-12-28T08:35:23.731Z,1009.55
2022-12-28T08:36:23.697Z,1009.59
2022-12-28T08:37:23.668Z,1009.51
2022-12-28T08:38:23.675Z,1009.50
2022-12-28T08:39:23.665Z,1009.49
2022-12-28T08:40:23.665Z,1009.45
2022-12-28T08:41:23.654Z,1009.47
2022-12-28T08:42:23.622Z,1009.52
2022-12-28T08:43:23.611Z,1009.47
2022-12-28T08:44:23.631Z,1009.41
2022-12-28T08:45:23.593Z,1009.35
2022-12-28T08:46:23.678Z,1009.36
2022-12-28T08:47:23.573Z,1009.42
2022-12-28T08:48:23.582Z,1009.33
2022-12-28T08:49:23.576Z,1009.34
2022-12-28T08:50:29.573Z,1009.42
2022-12-28T08:51:23.550Z,1009.35
2022-12-28T08:52:23.540Z,1009.37
2022-12-28T08:53:23.507Z,1009.43
2022-12-28T08:54:23.499Z,1009.41
2022-12-28T08:55:23.506Z,1009.33
2022-12-28T08:56:23.546Z,1009.43
2022-12-28T08:57:23.483Z,1009.39
2022-12-28T08:58:23.464Z,1009.37
2022-12-28T08:59:23.441Z,1009.35
2022-12-28T09:00:23.509Z,1009.37
2022-12-28T09:01:23.530Z,1009.33
2022-12-28T09:02:23.947Z,1009.26
2022-12-28T09:03:23.440Z,1009.34
2022-12-28T09:04:23.387Z,1009.25
2022-12-28T09:05:23.392Z,1009.25
2022-12-28T09:06:23.405Z,1009.25
2022-12-28T09:07:23.358Z,1009.27
2022-12-28T09:08:23.348Z,1009.27
2022-12-28T09:09:23.367Z,1009.23
2022-12-28T09:10:23.390Z,1009.19
2022-12-28T09:11:23.337Z,1009.27
2022-12-28T09:12:23.307Z,1009.28
2022-12-28T09:13:23.310Z,1009.22
2022-12-28T09:14:24.638Z,1009.28
2022-12-28T09:15:23.270Z,1009.28
2022-12-28T09:16:23.284Z,1009.28
2022-12-28T09:17:23.261Z,1009.26
2022-12-28T09:18:23.295Z,1009.21
2022-12-28T09:19:23.320Z,1009.24
2022-12-28T09:20:23.229Z,1009.21
2022-12-28T09:21:23.216Z,1009.20
2022-12-28T09:22:23.231Z,1009.19
2022-12-28T09:23:23.193Z,1009.17
2022-12-28T09:24:23.271Z,1009.13
2022-12-28T09:25:23.182Z,1009.13
2022-12-28T09:26:24.168Z,1009.11
2022-12-28T09:27:23.177Z,1009.07
2022-12-28T09:28:23.165Z,1009.10
2022-12-28T09:29:23.129Z,1009.08
2022-12-28T09:30:23.133Z,1009.05
2022-12-28T09:31:23.200Z,1009.08
2022-12-28T09:32:23.120Z,1009.07
2022-12-28T09:33:23.095Z,1009.03
2022-12-28T09:34:38.615Z,1008.99
2022-12-28T09:35:23.080Z,1008.94
2022-12-28T09:36:23.074Z,1008.97
2022-12-28T09:37:23.059Z,1008.95
2022-12-28T09:38:23.069Z,1008.97
2022-12-28T09:39:23.087Z,1008.89
2022-12-28T09:40:23.054Z,1008.93
2022-12-28T09:41:23.003Z,1008.87
2022-12-28T09:42:23.047Z,1008.84
2022-12-28T09:43:23.014Z,1008.86
2022-12-28T09:44:23.000Z,1008.86
2022-12-28T09:45:22.980Z,1008.84
2022-12-28T09:46:23.024Z,1008.82
2022-12-28T09:47:22.956Z,1008.84
2022-12-28T09:48:22.939Z,1008.80
2022-12-28T09:49:22.931Z,1008.83
2022-12-28T09:50:22.941Z,1008.82
2022-12-28T09:51:22.913Z,1008.80
2022-12-28T09:52:22.945Z,1008.83
2022-12-28T09:53:22.931Z,1008.72
2022-12-28T09:54:22.877Z,1008.69
2022-12-28T09:55:22.891Z,1008.73
2022-12-28T09:56:22.863Z,1008.66
2022-12-28T09:57:22.964Z,1008.71
2022-12-28T09:58:22.834Z,1008.65
2022-12-28T09:59:22.827Z,1008.69
2022-12-28T10:00:22.854Z,1008.71
2022-12-28T10:01:22.965Z,1008.70
2022-12-28T10:02:22.982Z,1008.66
2022-12-28T10:03:22.901Z,1008.61
2022-12-28T10:04:22.790Z,1008.69
2022-12-28T10:05:22.760Z,1008.63
2022-12-28T10:06:22.766Z,1008.59
2022-12-28T10:07:22.781Z,1008.56
2022-12-28T10:08:22.753Z,1008.55
2022-12-28T10:09:22.711Z,1008.54
2022-12-28T10:10:22.734Z,1008.54
2022-12-28T10:11:22.708Z,1008.53
2022-12-28T10:12:22.766Z,1008.62
2022-12-28T10:13:53.552Z,1008.52
2022-12-28T10:14:22.677Z,1008.60
2022-12-28T10:15:22.662Z,1008.54
2022-12-28T10:16:22.762Z,1008.45
2022-12-28T10:17:22.662Z,1008.43
2022-12-28T10:18:22.628Z,1008.49
2022-12-28T10:19:22.649Z,1008.50
2022-12-28T10:20:22.627Z,1008.45
2022-12-28T10:21:28.384Z,1008.52
2022-12-28T10:22:22.589Z,1008.45
2022-12-28T10:23:22.636Z,1008.40
2022-12-28T10:24:31.769Z,1008.37
2022-12-28T10:25:22.628Z,1008.42
2022-12-28T10:26:22.554Z,1008.43
2022-12-28T10:27:22.534Z,1008.42
2022-12-28T10:28:22.556Z,1008.35
2022-12-28T10:29:22.525Z,1008.37
2022-12-28T10:30:22.528Z,1008.37
2022-12-28T10:31:22.552Z,1008.37
2022-12-28T10:32:22.494Z,1008.33
2022-12-28T10:33:22.475Z,1008.35
2022-12-28T10:34:22.489Z,1008.30
2022-12-28T10:35:22.449Z,1008.36
2022-12-28T10:36:24.652Z,1008.28
2022-12-28T10:37:22.449Z,1008.37
2022-12-28T10:38:22.429Z,1008.28
2022-12-28T10:39:22.421Z,1008.30
2022-12-28T10:40:22.409Z,1008.20
2022-12-28T10:41:22.433Z,1008.24
2022-12-28T10:42:22.384Z,1008.23
2022-12-28T10:43:22.380Z,1008.21
2022-12-28T10:44:38.931Z,1008.21
2022-12-28T10:45:22.365Z,1008.19
2022-12-28T10:46:22.445Z,1008.24
2022-12-28T10:47:22.336Z,1008.16
2022-12-28T10:48:22.326Z,1008.11
2022-12-28T10:49:22.303Z,1008.11
2022-12-28T10:50:38.199Z,1008.14
2022-12-28T10:51:22.301Z,1008.06
2022-12-28T10:52:22.595Z,1007.99
2022-12-28T10:53:22.265Z,1008.09
2022-12-28T11:03:21.807Z,1008.15
2022-12-28T11:03:26.600Z,1008.09
2022-12-28T11:03:31.688Z,1008.04
2022-12-28T11:04:31.592Z,1008.02
2022-12-28T11:05:31.564Z,1007.99
2022-12-28T11:06:31.589Z,1008.01
2022-12-28T11:07:31.608Z,1008.00
2022-12-28T11:08:31.551Z,1007.93
2022-12-28T11:09:31.590Z,1007.94
2022-12-28T11:10:31.529Z,1007.91
2022-12-28T11:11:31.548Z,1007.87
2022-12-28T11:12:31.535Z,1008.00
2022-12-28T11:13:31.490Z,1007.91
2022-12-28T11:14:31.520Z,1007.94
2022-12-28T11:15:31.470Z,1007.88
2022-12-28T11:16:31.500Z,1007.87
2022-12-28T11:17:31.481Z,1007.86
2022-12-28T11:18:37.695Z,1007.88
2022-12-28T11:19:31.430Z,1007.90
2022-12-28T11:20:31.421Z,1007.87
2022-12-28T11:21:31.408Z,1007.86
2022-12-28T11:22:31.420Z,1007.85
2022-12-28T11:23:31.411Z,1007.81
2022-12-28T11:24:37.643Z,1007.79
2022-12-28T11:25:31.374Z,1007.88
2022-12-28T11:26:31.372Z,1007.80
2022-12-28T11:27:31.393Z,1007.75
2022-12-28T11:28:31.337Z,1007.73
2022-12-28T11:29:31.331Z,1007.79
2022-12-28T11:30:31.321Z,1007.75
2022-12-28T11:31:31.378Z,1007.74
2022-12-28T11:32:31.377Z,1007.77
2022-12-28T11:33:31.291Z,1007.73
2022-12-28T11:34:31.281Z,1007.80
2022-12-28T11:35:31.277Z,1007.69
2022-12-28T11:36:31.284Z,1007.71
2022-12-28T11:37:31.248Z,1007.71
2022-12-28T11:38:31.320Z,1007.68
2022-12-28T11:39:31.220Z,1007.70
2022-12-28T11:40:31.207Z,1007.73
2022-12-28T11:41:33.955Z,1007.64
2022-12-28T11:42:40.406Z,1007.66
2022-12-28T11:43:31.191Z,1007.68
2022-12-28T11:44:31.176Z,1007.64
2022-12-28T11:45:31.178Z,1007.62
2022-12-28T11:46:31.168Z,1007.61
2022-12-28T11:47:31.206Z,1007.55
2022-12-28T11:48:31.134Z,1007.64
2022-12-28T11:49:31.209Z,1007.55
2022-12-28T11:50:31.121Z,1007.56
2022-12-28T11:51:31.114Z,1007.53
2022-12-28T11:52:31.127Z,1007.51
2022-12-28T11:53:31.070Z,1007.51
2022-12-28T11:54:31.093Z,1007.48
2022-12-28T11:55:31.084Z,1007.44
2022-12-28T11:56:31.043Z,1007.48
2022-12-28T11:57:31.062Z,1007.51
2022-12-28T11:58:31.020Z,1007.45
2022-12-28T11:59:31.013Z,1007.55
2022-12-28T12:00:31.024Z,1007.49
2022-12-28T12:01:31.143Z,1007.46
2022-12-28T12:02:31.034Z,1007.43
2022-12-28T12:03:31.018Z,1007.40
2022-12-28T12:04:30.979Z,1007.44
2022-12-28T12:05:30.964Z,1007.38
2022-12-28T12:06:34.129Z,1007.35
2022-12-28T12:07:32.319Z,1007.40
2022-12-28T12:08:30.978Z,1007.37
2022-12-28T12:09:30.918Z,1007.37
2022-12-28T12:10:30.917Z,1007.35
2022-12-28T12:11:30.927Z,1007.36
2022-12-28T12:12:30.956Z,1007.34
2022-12-28T12:13:30.861Z,1007.31